createdAt,value
2023-02-08T00:03:32.696Z,16.50
2023-02-08T00:08:36.024Z,20.45
2023-02-08T00:13:41.967Z,19.60
2023-02-08T00:18:44.624Z,17.60
2023-02-08T00:23:47.221Z,22.50
2023-02-08T00:28:49.301Z,18.38
2023-02-08T00:33:51.417Z,17.75
2023-02-08T00:38:53.777Z,37.65
2023-02-08T00:43:56.007Z,15.07
2023-02-08T00:48:58.178Z,16.42
2023-02-08T00:54:00.233Z,17.35
2023-02-08T00:59:02.423Z,21.65
2023-02-08T01:04:05.278Z,17.13
2023-02-08T01:09:07.605Z,11.45
2023-02-08T01:14:09.804Z,12.70
2023-02-08T01:19:12.582Z,12.38
2023-02-08T01:24:14.751Z,13.10
2023-02-08T01:29:17.455Z,12.48
2023-02-08T01:34:19.867Z,14.55
2023-02-08T01:39:21.970Z,10.57
2023-02-08T01:45:01.609Z,13.55
2023-02-08T01:50:03.846Z,10.35
2023-02-08T01:55:14.216Z,9.77
2023-02-08T02:00:18.848Z,9.57
2023-02-08T02:05:24.227Z,10.77
2023-02-08T02:10:35.070Z,10.48
2023-02-08T02:15:37.308Z,11.10
2023-02-08T02:21:29.826Z,12.63
2023-02-08T02:27:10.664Z,11.45
2023-02-08T02:32:42.258Z,11.30
2023-02-08T02:38:02.888Z,11.52
2023-02-08T02:43:33.224Z,11.48
2023-02-08T02:48:59.822Z,10.97
2023-02-08T02:54:10.003Z,11.73
2023-02-08T02:59:13.960Z,11.48
2023-02-08T03:04:35.581Z,12.45
2023-02-08T03:10:06.559Z,14.30
2023-02-08T03:15:37.873Z,10.63
2023-02-08T03:25:56.053Z,13.93
2023-02-08T03:31:13.294Z,11.30
2023-02-08T03:36:26.507Z,17.58
2023-02-08T03:41:37.390Z,19.67
2023-02-08T03:47:03.688Z,21.80
2023-02-08T03:52:09.970Z,18.13
2023-02-08T03:57:26.489Z,15.15
2023-02-08T04:02:33.965Z,20.27
2023-02-08T04:07:36.242Z,19.65
2023-02-08T04:12:38.493Z,15.82
2023-02-08T04:17:40.581Z,18.50
2023-02-08T04:22:42.792Z,17.55
2023-02-08T04:27:44.956Z,19.45
2023-02-08T04:32:47.516Z,17.00
2023-02-08T04:37:50.013Z,19.02
2023-02-08T04:42:52.173Z,19.88
2023-02-08T04:47:54.398Z,14.93
2023-02-08T04:52:56.676Z,17.95
2023-02-08T04:57:59.055Z,18.98
2023-02-08T05:03:01.145Z,20.63
2023-02-08T05:08:04.030Z,23.70
2023-02-08T05:13:06.155Z,17.85
2023-02-08T05:18:08.238Z,19.90
2023-02-08T05:23:10.326Z,18.27
2023-02-08T05:28:12.407Z,24.55
2023-02-08T05:33:14.834Z,29.13
2023-02-08T05:38:16.966Z,22.55
2023-02-08T05:43:19.132Z,29.15
2023-02-08T05:48:21.265Z,27.33
2023-02-08T05:53:23.418Z,26.50
2023-02-08T05:58:26.355Z,19.65
2023-02-08T06:03:28.680Z,19.17
2023-02-08T06:08:30.814Z,22.27
2023-02-08T06:13:32.928Z,29.77
2023-02-08T06:18:35.016Z,21.70
2023-02-08T06:23:37.185Z,32.05
2023-02-08T06:28:39.357Z,29.55
2023-02-08T06:33:41.487Z,27.48
2023-02-08T06:38:43.631Z,36.83
2023-02-08T06:43:45.940Z,38.65
2023-02-08T06:48:48.077Z,34.38
2023-02-08T06:53:50.214Z,21.25
2023-02-08T06:58:52.350Z,24.75
2023-02-08T07:03:54.566Z,23.60
2023-02-08T07:08:56.703Z,28.73
2023-02-08T07:13:58.978Z,30.67
2023-02-08T07:19:01.142Z,16.15
2023-02-08T07:24:03.446Z,18.95
2023-02-08T07:29:05.796Z,15.65
2023-02-08T07:34:07.979Z,26.02
2023-02-08T07:39:10.135Z,25.33
2023-02-08T07:44:12.291Z,26.42
2023-02-08T07:49:14.458Z,22.20
2023-02-08T07:54:16.774Z,17.52
2023-02-08T07:59:18.976Z,20.25
2023-02-08T08:04:22.348Z,18.75
2023-02-08T08:09:24.659Z,17.73
2023-02-08T08:14:26.875Z,21.88
2023-02-08T08:19:29.160Z,15.80
2023-02-08T08:24:35.790Z,15.63
2023-02-08T08:29:39.121Z,14.02
2023-02-08T08:34:41.259Z,15.95
2023-02-08T08:39:43.844Z,15.15
2023-02-08T08:44:45.915Z,18.35
2023-02-08T08:49:48.148Z,12.30
2023-02-08T08:54:50.261Z,15.80
2023-02-08T08:59:52.405Z,13.35
2023-02-08T09:04:54.583Z,17.60
2023-02-08T09:09:56.885Z,10.23
2023-02-08T09:14:59.070Z,15.00
2023-02-08T09:20:02.307Z,14.10
2023-02-08T09:25:06.466Z,16.08
2023-02-08T09:30:09.451Z,12.32
2023-02-08T09:35:13.709Z,10.93
2023-02-08T09:40:29.093Z,13.35
2023-02-08T09:45:59.301Z,11.25
2023-02-08T09:51:27.891Z,11.75
2023-02-08T09:56:40.565Z,16.60
2023-02-08T10:01:43.096Z,16.48
2023-02-08T10:06:45.258Z,12.02
2023-02-08T10:12:06.001Z,13.07
2023-02-08T10:22:16.290Z,13.18
2023-02-08T10:27:31.800Z,12.10
2023-02-08T10:32:58.861Z,12.95
2023-02-08T10:38:01.230Z,14.73
2023-02-08T10:43:18.509Z,13.82
2023-02-08T10:48:53.144Z,14.65
2023-02-08T10:53:55.220Z,14.90
2023-02-08T10:58:59.572Z,15.23
2023-02-08T11:04:11.749Z,10.85
2023-02-08T11:09:31.417Z,11.48
2023-02-08T11:14:47.261Z,12.02
2023-02-08T11:19:50.987Z,13.07
2023-02-08T11:25:01.829Z,15.50
2023-02-08T11:30:16.567Z,12.98
2023-02-08T11:35:22.177Z,12.50
2023-02-08T11:40:30.408Z,14.63
2023-02-08T11:45:36.044Z,21.67
2023-02-08T11:50:39.205Z,14.82
2023-02-08T11:55:41.559Z,13.75
2023-02-08T12:01:00.100Z,18.67
2023-02-08T12:06:27.897Z,15.88
2023-02-08T12:11:43.573Z,17.15
2023-02-08T12:17:29.682Z,15.05
2023-02-08T12:22:32.048Z,11.38
2023-02-08T12:27:55.380Z,13.07
2023-02-08T12:33:18.869Z,14.32
2023-02-08T12:38:55.394Z,14.30
2023-02-08T12:44:25.729Z,14.60
2023-02-08T12:49:54.673Z,14.60
2023-02-08T12:55:06.765Z,12.43
2023-02-08T13:00:22.140Z,17.30
2023-02-08T13:05:28.770Z,18.35
2023-02-08T13:10:37.139Z,15.07
2023-02-08T13:15:45.923Z,17.65
2023-02-08T13:21:08.216Z,16.30
2023-02-08T13:26:19.434Z,15.57
2023-02-08T13:31:32.379Z,14.68
2023-02-08T13:36:37.448Z,13.15
2023-02-08T13:41:50.717Z,13.32
2023-02-08T13:46:52.954Z,17.65
2023-02-08T13:51:55.450Z,19.20
2023-02-08T13:56:58.067Z,15.18
2023-02-08T14:02:12.312Z,14.65
2023-02-08T14:07:17.281Z,24.75
2023-02-08T14:12:35.046Z,16.50
2023-02-08T14:17:40.834Z,14.23
2023-02-08T14:22:52.773Z,11.32
2023-02-08T14:27:57.354Z,14.50
2023-02-08T14:33:23.633Z,12.13
2023-02-08T14:38:26.072Z,12.80
2023-02-08T14:43:29.812Z,9.60
2023-02-08T14:48:53.324Z,10.13
2023-02-08T14:54:01.625Z,12.90
2023-02-08T14:59:11.732Z,11.32
2023-02-08T15:04:15.645Z,11.35
2023-02-08T15:09:24.265Z,7.93
2023-02-08T15:14:27.218Z,15.75
2023-02-08T15:19:35.893Z,14.90
2023-02-08T15:24:38.225Z,11.30
2023-02-08T15:29:44.966Z,14.13
2023-02-08T15:34:54.619Z,16.52
2023-02-08T15:39:58.419Z,17.77
2023-02-08T15:45:03.036Z,21.15
2023-02-08T15:50:08.272Z,23.55
2023-02-08T15:55:17.136Z,24.85
2023-02-08T16:00:27.015Z,27.92
2023-02-08T16:05:31.347Z,26.70
2023-02-08T16:10:43.508Z,25.42
2023-02-08T16:15:55.562Z,29.92
2023-02-08T16:21:02.086Z,16.15
2023-02-08T16:26:32.573Z,21.80
2023-02-08T16:31:36.245Z,44.47
2023-02-08T16:36:42.064Z,39.60
2023-02-08T16:41:55.572Z,32.88
2023-02-08T16:47:27.812Z,23.23
2023-02-08T16:52:30.005Z,17.05
2023-02-08T16:57:42.765Z,21.83
2023-02-08T17:02:45.116Z,21.30
2023-02-08T17:07:47.544Z,23.95
2023-02-08T17:12:49.910Z,28.10
2023-02-08T17:17:53.183Z,20.48
2023-02-08T17:22:57.109Z,22.08
2023-02-08T17:28:03.095Z,45.78
2023-02-08T17:33:07.038Z,35.97
2023-02-08T17:38:09.199Z,23.65
2023-02-08T17:43:13.253Z,27.50
2023-02-08T17:48:15.634Z,25.92
2023-02-08T17:53:18.946Z,33.03
2023-02-08T17:58:21.358Z,26.00
2023-02-08T18:03:23.438Z,25.83
2023-02-08T18:08:26.516Z,31.20
2023-02-08T18:13:28.689Z,26.75
2023-02-08T18:18:30.914Z,29.60
2023-02-08T18:23:33.139Z,26.92
2023-02-08T18:28:35.873Z,26.40
2023-02-08T18:33:38.531Z,20.85
2023-02-08T18:38:45.891Z,31.83
2023-02-08T18:43:49.546Z,24.27
2023-02-08T18:48:54.174Z,33.28
2023-02-08T18:53:56.640Z,38.47
2023-02-08T18:59:00.940Z,39.35
2023-02-08T19:04:06.225Z,39.47
2023-02-08T19:09:09.656Z,43.83
2023-02-08T19:14:16.053Z,62.90
2023-02-08T19:19:18.322Z,82.90
2023-02-08T19:24:20.558Z,78.43
2023-02-08T19:29:23.151Z,65.35
2023-02-08T19:34:25.591Z,56.85
2023-02-08T19:39:28.557Z,127.55
2023-02-08T19:44:30.918Z,89.30
2023-02-08T19:49:33.229Z,43.45
2023-02-08T19:54:35.404Z,43.40
2023-02-08T19:59:37.527Z,45.55
2023-02-08T20:04:40.283Z,49.67
2023-02-08T20:09:42.378Z,50.55
2023-02-08T20:14:44.563Z,51.63
2023-02-08T20:19:46.746Z,41.72
2023-02-08T20:24:48.852Z,55.50
2023-02-08T20:29:50.931Z,42.92
2023-02-08T20:34:59.557Z,36.78
2023-02-08T20:40:02.412Z,66.75
2023-02-08T20:45:06.765Z,33.83
2023-02-08T20:50:18.307Z,35.63
2023-02-08T20:55:21.531Z,34.00
2023-02-08T21:00:27.917Z,33.80
2023-02-08T21:05:35.649Z,39.35
2023-02-08T21:10:37.900Z,44.05
2023-02-08T21:15:44.540Z,40.60
2023-02-08T21:20:47.110Z,37.03
2023-02-08T21:25:49.761Z,34.97
2023-02-08T21:31:15.476Z,39.92
2023-02-08T21:36:22.225Z,38.63
2023-02-08T21:41:26.977Z,37.17
2023-02-08T21:46:29.455Z,37.45
2023-02-08T21:51:50.957Z,42.45
2023-02-08T21:56:53.027Z,38.67
2023-02-08T22:01:55.297Z,35.75
2023-02-08T22:06:57.564Z,26.38
2023-02-08T22:12:00.000Z,18.63
2023-02-08T22:17:02.525Z,30.38
2023-02-08T22:22:04.798Z,28.95
2023-02-08T22:27:07.213Z,28.65
2023-02-08T22:32:10.251Z,33.22
2023-02-08T22:37:12.963Z,51.28
2023-02-08T22:42:15.257Z,28.10
2023-02-08T22:47:17.455Z,30.83
2023-02-08T22:52:19.722Z,26.98
2023-02-08T22:57:21.938Z,32.63
2023-02-08T23:02:24.945Z,31.60
2023-02-08T23:07:27.115Z,27.58
2023-02-08T23:12:29.704Z,22.42
2023-02-08T23:17:32.003Z,17.02
2023-02-08T23:22:38.155Z,20.92
2023-02-08T23:27:40.309Z,13.52
2023-02-08T23:32:42.973Z,24.05
2023-02-08T23:37:45.146Z,17.90
2023-02-08T23:42:47.338Z,14.95
2023-02-08T23:47:49.454Z,18.35
2023-02-08T23:52:51.598Z,20.45
2023-02-08T23:57:53.785Z,16.02
